createdAt,value
2022-08-18T00:01:31.583Z,97855.69
2022-08-18T00:04:03.030Z,97852.88
2022-08-18T00:06:30.145Z,97861.47
2022-08-18T00:09:00.465Z,97862.63
2022-08-18T00:11:27.445Z,97852.97
2022-08-18T00:13:53.800Z,97859.06
2022-08-18T00:16:20.196Z,97850.25
2022-08-18T00:18:46.564Z,97851.91
2022-08-18T00:21:12.940Z,97845.50
2022-08-18T00:23:39.299Z,97850.75
2022-08-18T00:26:05.821Z,97855.56
2022-08-18T00:28:32.193Z,97852.91
2022-08-18T00:30:58.553Z,97840.78
2022-08-18T00:33:24.960Z,97850.50
2022-08-18T00:35:51.319Z,97860.97
2022-08-18T00:38:24.247Z,97850.97
2022-08-18T00:40:52.132Z,97855.47
2022-08-18T00:43:39.792Z,97851.47
2022-08-18T00:46:06.931Z,97853.56
2022-08-18T00:48:33.312Z,97851.03
2022-08-18T00:51:02.148Z,97853.97
2022-08-18T00:53:35.448Z,97847.94
2022-08-18T00:56:04.106Z,97845.16
2022-08-18T00:58:35.663Z,97852.25
2022-08-18T01:01:03.378Z,97835.50
2022-08-18T01:03:29.782Z,97845.19
2022-08-18T01:05:57.736Z,97849.19
2022-08-18T01:08:29.263Z,97864.91
2022-08-18T01:10:55.998Z,97865.34
2022-08-18T01:13:25.438Z,97871.78
2022-08-18T01:15:51.806Z,97868.19
2022-08-18T01:18:36.932Z,97866.66
2022-08-18T01:21:25.182Z,97869.13
2022-08-18T01:23:51.664Z,97869.91
2022-08-18T01:26:18.139Z,97861.56
2022-08-18T01:28:45.222Z,97862.69
2022-08-18T01:31:13.427Z,97853.13
2022-08-18T01:33:42.226Z,97853.53
2022-08-18T01:36:08.654Z,97856.41
2022-08-18T01:38:35.014Z,97858.47
2022-08-18T01:41:26.151Z,97859.16
2022-08-18T01:43:48.053Z,97857.22
2022-08-18T01:46:20.129Z,97858.44
2022-08-18T01:48:46.657Z,97855.28
2022-08-18T01:51:13.603Z,97863.28
2022-08-18T01:53:39.960Z,97853.25
2022-08-18T01:56:06.881Z,97847.97
2022-08-18T01:58:33.482Z,97851.66
2022-08-18T02:01:01.695Z,97857.66
2022-08-18T02:03:32.968Z,97862.91
2022-08-18T02:06:00.268Z,97867.34
2022-08-18T02:08:28.098Z,97864.16
2022-08-18T02:10:55.463Z,97866.22
2022-08-18T02:13:21.837Z,97868.16
2022-08-18T02:15:48.207Z,97868.66
2022-08-18T02:18:15.617Z,97871.03
2022-08-18T02:20:59.476Z,97875.44
2022-08-18T02:23:25.855Z,97873.81
2022-08-18T02:25:53.516Z,97870.66
2022-08-18T02:28:19.866Z,97868.66
2022-08-18T02:30:46.251Z,97863.88
2022-08-18T02:33:12.694Z,97860.66
2022-08-18T02:35:39.141Z,97867.91
2022-08-18T02:38:05.988Z,97860.28
2022-08-18T02:40:36.332Z,97860.69
2022-08-18T02:43:06.331Z,97859.50
2022-08-18T02:45:32.816Z,97851.50
2022-08-18T02:47:59.186Z,97849.56
2022-08-18T02:50:25.618Z,97848.34
2022-08-18T02:52:51.983Z,97846.25
2022-08-18T02:55:18.439Z,97848.25
2022-08-18T02:57:45.824Z,97853.94
2022-08-18T03:00:14.496Z,97864.06
2022-08-18T03:02:42.030Z,97866.97
2022-08-18T03:05:14.715Z,97870.63
2022-08-18T03:07:41.315Z,97878.22
2022-08-18T03:10:31.631Z,97861.69
2022-08-18T03:12:54.339Z,97864.28
2022-08-18T03:15:22.674Z,97860.34
2022-08-18T03:17:53.121Z,97857.94
2022-08-18T03:20:19.806Z,97859.19
2022-08-18T03:22:57.634Z,97860.50
2022-08-18T03:25:24.813Z,97856.56
2022-08-18T03:27:51.411Z,97860.16
2022-08-18T03:30:17.927Z,97856.97
2022-08-18T03:32:45.722Z,97862.63
2022-08-18T03:35:14.558Z,97858.69
2022-08-18T03:37:40.966Z,97862.72
2022-08-18T03:40:07.690Z,97856.69
2022-08-18T03:42:34.250Z,97853.47
2022-08-18T03:45:00.639Z,97855.47
2022-08-18T03:47:39.859Z,97869.16
2022-08-18T03:50:06.545Z,97875.97
2022-08-18T03:52:32.914Z,97870.44
2022-08-18T03:55:00.063Z,97866.00
2022-08-18T03:57:33.149Z,97871.13
2022-08-18T04:00:06.100Z,97867.94
2022-08-18T04:02:32.461Z,97877.22
2022-08-18T04:04:58.883Z,97885.25
2022-08-18T04:07:25.239Z,97882.47
2022-08-18T04:09:51.618Z,97889.28
2022-08-18T04:12:18.087Z,97879.31
2022-08-18T04:14:47.691Z,97893.69
2022-08-18T04:17:14.086Z,97899.28
2022-08-18T04:19:40.492Z,97884.88
2022-08-18T04:22:06.905Z,97888.13
2022-08-18T04:24:34.562Z,97898.53
2022-08-18T04:27:02.435Z,97895.34
2022-08-18T04:29:28.799Z,97893.34
2022-08-18T04:31:55.185Z,97904.16
2022-08-18T04:34:22.634Z,97901.75
2022-08-18T04:36:49.264Z,97893.72
2022-08-18T04:39:15.729Z,97893.19
2022-08-18T04:41:43.569Z,97889.88
2022-08-18T04:44:10.224Z,97904.25
2022-08-18T04:46:40.621Z,97907.50
2022-08-18T04:49:08.002Z,97900.97
2022-08-18T04:52:39.394Z,97906.66
2022-08-18T04:54:20.789Z,97906.63
2022-08-18T04:56:47.172Z,97901.75
2022-08-18T04:59:13.669Z,97896.50
2022-08-18T05:01:40.994Z,97903.28
2022-08-18T05:04:09.212Z,97908.09
2022-08-18T05:06:35.613Z,97911.53
2022-08-18T05:09:04.591Z,97910.34
2022-08-18T05:11:34.590Z,97897.41
2022-08-18T05:14:01.364Z,97898.59
2022-08-18T05:16:28.071Z,97903.91
2022-08-18T05:18:54.715Z,97906.69
2022-08-18T05:21:22.366Z,97909.81
2022-08-18T05:23:51.175Z,97905.56
2022-08-18T05:26:17.653Z,97913.25
2022-08-18T05:28:44.298Z,97904.06
2022-08-18T05:31:13.791Z,97911.31
2022-08-18T05:33:40.500Z,97905.34
2022-08-18T05:36:11.936Z,97910.97
2022-08-18T05:38:41.316Z,97913.38
2022-08-18T05:41:14.284Z,97920.66
2022-08-18T05:43:51.169Z,97920.63
2022-08-18T05:46:18.631Z,97919.00
2022-08-18T05:48:48.346Z,97915.75
2022-08-18T05:51:16.922Z,97912.19
2022-08-18T05:54:02.235Z,97924.53
2022-08-18T05:56:47.920Z,97910.97
2022-08-18T05:59:19.169Z,97924.56
2022-08-18T06:01:46.734Z,97920.47
2022-08-18T06:04:19.510Z,97926.94
2022-08-18T06:06:48.006Z,97921.81
2022-08-18T06:09:34.964Z,97922.63
2022-08-18T06:12:05.098Z,97917.78
2022-08-18T06:14:31.497Z,97919.81
2022-08-18T06:17:01.119Z,97918.09
2022-08-18T06:19:36.702Z,97921.38
2022-08-18T06:22:07.699Z,97929.31
2022-08-18T06:24:54.319Z,97928.44
2022-08-18T06:27:40.908Z,97931.59
2022-08-18T06:30:15.170Z,97939.91
2022-08-18T06:32:48.787Z,97945.16
2022-08-18T06:35:18.287Z,97942.19
2022-08-18T06:38:18.331Z,97950.41
2022-08-18T06:40:47.364Z,97947.13
2022-08-18T06:43:15.769Z,97956.50
2022-08-18T06:45:42.136Z,97948.81
2022-08-18T06:48:20.810Z,97954.03
2022-08-18T06:50:54.182Z,97967.44
2022-08-18T06:53:27.398Z,97965.47
2022-08-18T06:55:54.728Z,97970.16
2022-08-18T06:58:29.999Z,97977.44
2022-08-18T07:01:00.736Z,97979.13
2022-08-18T07:03:36.476Z,97976.97
2022-08-18T07:06:04.839Z,97981.72
2022-08-18T07:08:32.027Z,97974.72
2022-08-18T07:11:10.649Z,97976.66
2022-08-18T07:13:40.600Z,97979.91
2022-08-18T07:16:26.444Z,97985.25
2022-08-18T07:19:11.191Z,97985.84
2022-08-18T07:21:38.130Z,97990.78
2022-08-18T07:24:23.695Z,97993.41
2022-08-18T07:27:01.435Z,97992.97
2022-08-18T07:29:28.535Z,97991.59
2022-08-18T07:31:55.039Z,98005.19
2022-08-18T07:34:28.056Z,97996.53
2022-08-18T07:37:14.335Z,98000.44
2022-08-18T07:39:52.054Z,98000.13
2022-08-18T07:42:37.186Z,97995.16
2022-08-18T07:45:19.743Z,97987.31
2022-08-18T07:47:54.215Z,97995.31
2022-08-18T07:50:55.137Z,97981.97
2022-08-18T07:53:40.448Z,97985.84
2022-08-18T07:56:15.638Z,97991.59
2022-08-18T07:58:44.608Z,97989.84
2022-08-18T08:01:26.421Z,97991.78
2022-08-18T08:03:54.948Z,97992.16
2022-08-18T08:06:27.507Z,97986.09
2022-08-18T08:09:06.898Z,97977.97
2022-08-18T08:11:35.973Z,97968.00
2022-08-18T08:14:09.097Z,97983.78
2022-08-18T08:16:41.438Z,97983.38
2022-08-18T08:19:56.766Z,97991.56
2022-08-18T08:22:28.552Z,97984.28
2022-08-18T08:25:13.688Z,97988.59
2022-08-18T08:28:21.968Z,97990.03
2022-08-18T08:31:33.242Z,97992.16
2022-08-18T08:34:02.856Z,97994.72
2022-08-18T08:36:33.700Z,98002.31
2022-08-18T08:39:17.923Z,98004.59
2022-08-18T08:41:50.990Z,98009.06
2022-08-18T08:44:21.516Z,98000.09
2022-08-18T08:47:00.040Z,98003.94
2022-08-18T08:50:01.973Z,98002.50
2022-08-18T08:52:47.708Z,97998.50
2022-08-18T08:55:16.128Z,98000.81
2022-08-18T08:57:47.546Z,98003.16
2022-08-18T09:00:15.198Z,98010.38
2022-08-18T09:03:00.651Z,98017.44
2022-08-18T09:05:30.816Z,98010.22
2022-08-18T09:08:13.477Z,98007.44
2022-08-18T09:10:59.400Z,98000.19
2022-08-18T09:13:42.596Z,98007.66
2022-08-18T09:16:13.943Z,98011.22
2022-08-18T09:18:45.535Z,98015.50
2022-08-18T09:21:18.530Z,98016.09
2022-08-18T09:23:46.295Z,98019.25
2022-08-18T09:26:35.133Z,98015.53
2022-08-18T09:29:18.925Z,98021.38
2022-08-18T09:31:45.823Z,98017.31
2022-08-18T09:34:12.756Z,98028.25
2022-08-18T09:36:41.959Z,98032.88
2022-08-18T09:39:53.200Z,98027.22
2022-08-18T09:42:49.881Z,98041.47
2022-08-18T09:48:30.383Z,98039.69
2022-08-18T09:50:57.116Z,98037.53
2022-08-18T09:53:34.635Z,98031.97
2022-08-18T09:56:05.586Z,98034.84
2022-08-18T09:58:52.747Z,98043.41
2022-08-18T10:01:22.984Z,98041.34
2022-08-18T10:04:08.388Z,98038.66
2022-08-18T10:06:38.571Z,98043.50
2022-08-18T10:09:26.810Z,98049.34
2022-08-18T10:12:18.153Z,98055.19
2022-08-18T10:15:03.358Z,98053.72
2022-08-18T10:17:42.198Z,98058.94
2022-08-18T10:20:25.968Z,98044.75
2022-08-18T10:23:04.510Z,98044.44
2022-08-18T10:25:38.465Z,98044.44
2022-08-18T10:28:05.893Z,98040.47
2022-08-18T10:30:56.971Z,98037.13
2022-08-18T10:33:43.900Z,98033.16
2022-08-18T10:36:11.024Z,98036.25
2022-08-18T10:38:39.217Z,98041.06
2022-08-18T10:41:15.271Z,98043.22
2022-08-18T10:43:55.128Z,98044.78
2022-08-18T10:46:26.494Z,98040.88
2022-08-18T10:49:04.278Z,98053.47
2022-08-18T10:52:00.411Z,98066.44
2022-08-18T10:54:25.254Z,98066.03
2022-08-18T10:56:57.919Z,98049.16
2022-08-18T11:03:01.976Z,98041.69
2022-08-18T11:08:17.509Z,98048.16
2022-08-18T11:11:06.253Z,98033.31
2022-08-18T11:13:35.243Z,98041.97
2022-08-18T11:16:13.346Z,98045.81
2022-08-18T11:18:42.962Z,98046.09
2022-08-18T11:21:30.497Z,98042.28
2022-08-18T11:24:17.117Z,98038.38
2022-08-18T11:26:54.720Z,98030.84
2022-08-18T11:29:32.369Z,98032.19
2022-08-18T11:32:22.488Z,98039.94
2022-08-18T11:34:53.659Z,98034.97
2022-08-18T11:37:24.507Z,98038.91
2022-08-18T11:39:51.365Z,98024.97
2022-08-18T11:42:21.709Z,98022.19
2022-08-18T11:44:53.468Z,98016.09
2022-08-18T11:50:08.820Z,98011.97
2022-08-18T11:52:45.989Z,98009.66
2022-08-18T11:55:24.249Z,98015.13
2022-08-18T11:57:58.594Z,98011.00
2022-08-18T12:00:36.228Z,98000.63
2022-08-18T12:03:11.549Z,98017.44
2022-08-18T12:05:53.891Z,98006.91
2022-08-18T12:08:41.871Z,98010.34
2022-08-18T12:11:27.209Z,98000.63
2022-08-18T12:14:32.209Z,97997.59
2022-08-18T12:16:57.968Z,98000.03
2022-08-18T12:19:28.555Z,97996.06
2022-08-18T12:21:55.704Z,98005.88
2022-08-18T12:24:26.258Z,97999.75
2022-08-18T12:27:01.099Z,98005.00
2022-08-18T12:29:32.724Z,98003.28
2022-08-18T12:32:03.209Z,97998.63
2022-08-18T12:34:35.010Z,97998.00
2022-08-18T12:37:01.489Z,97996.31
2022-08-18T12:39:28.525Z,97990.66
2022-08-18T12:41:55.099Z,97986.81
2022-08-18T12:44:21.558Z,97989.31
2022-08-18T12:46:48.536Z,97986.56
2022-08-18T12:49:22.472Z,97971.56
2022-08-18T12:51:50.515Z,97969.66
2022-08-18T12:54:17.386Z,97969.00
2022-08-18T12:56:43.862Z,97975.25
2022-08-18T12:59:10.403Z,97983.41
2022-08-18T13:01:38.072Z,97991.13
2022-08-18T13:04:13.107Z,97989.09
2022-08-18T13:06:41.298Z,97994.91
2022-08-18T13:09:35.696Z,97996.03
2022-08-18T13:12:15.118Z,97993.50
2022-08-18T13:14:43.435Z,97991.53
2022-08-18T13:17:15.230Z,97978.41
2022-08-18T13:19:56.382Z,97979.75
2022-08-18T13:22:24.066Z,97973.97
2022-08-18T13:24:59.260Z,97969.69
2022-08-18T13:27:26.773Z,97966.31
2022-08-18T13:29:59.331Z,97959.66
2022-08-18T13:32:26.261Z,97951.94
2022-08-18T13:34:54.703Z,97953.09
2022-08-18T13:37:26.694Z,97949.63
2022-08-18T13:39:54.303Z,97949.16
2022-08-18T13:42:26.220Z,97942.38
2022-08-18T13:45:22.741Z,97936.81
2022-08-18T13:47:47.597Z,97949.56
2022-08-18T13:50:17.708Z,97953.09
2022-08-18T13:52:46.271Z,97960.50
2022-08-18T13:55:16.903Z,97953.88
2022-08-18T13:57:50.205Z,97956.50
2022-08-18T14:00:29.597Z,97953.78
2022-08-18T14:02:58.832Z,97941.44
2022-08-18T14:05:36.824Z,97935.69
2022-08-18T14:08:12.554Z,97930.00
2022-08-18T14:10:48.196Z,97930.00
2022-08-18T14:13:24.260Z,97940.22
2022-08-18T14:15:53.674Z,97945.47
2022-08-18T14:18:29.153Z,97941.63
2022-08-18T14:21:16.027Z,97946.31
2022-08-18T14:24:01.154Z,97941.22
2022-08-18T14:26:46.631Z,97943.16
2022-08-18T14:29:17.027Z,97940.25
2022-08-18T14:31:45.157Z,97927.31
2022-08-18T14:34:11.584Z,97932.34
2022-08-18T14:36:38.283Z,97927.47
2022-08-18T14:39:06.068Z,97927.06
2022-08-18T14:41:34.935Z,97929.88
2022-08-18T14:44:12.382Z,97929.38
2022-08-18T14:46:41.071Z,97936.19
2022-08-18T14:49:08.001Z,97923.69
2022-08-18T14:51:34.345Z,97931.75
2022-08-18T14:54:01.143Z,97931.56
2022-08-18T14:56:29.645Z,97932.38
2022-08-18T14:59:08.153Z,97943.38
2022-08-18T15:01:35.286Z,97942.78
2022-08-18T15:04:18.706Z,97940.31
2022-08-18T15:06:46.181Z,97938.63
2022-08-18T15:09:23.354Z,97931.06
2022-08-18T15:11:51.244Z,97928.28
2022-08-18T15:14:21.349Z,97922.31
2022-08-18T15:16:59.074Z,97925.53
2022-08-18T15:19:58.819Z,97929.41
2022-08-18T15:22:30.945Z,97933.53
2022-08-18T15:25:17.283Z,97937.56
2022-08-18T15:27:44.851Z,97932.84
2022-08-18T15:30:13.390Z,97936.22
2022-08-18T15:32:46.213Z,97938.16
2022-08-18T15:35:16.185Z,97930.00
2022-08-18T15:37:43.651Z,97939.06
2022-08-18T15:40:35.481Z,97930.22
2022-08-18T15:43:09.904Z,97926.94
2022-08-18T15:45:42.894Z,97930.44
2022-08-18T15:48:17.780Z,97935.78
2022-08-18T15:50:44.757Z,97923.06
2022-08-18T15:53:18.629Z,97918.97
2022-08-18T15:55:44.990Z,97922.50
2022-08-18T15:58:12.401Z,97924.81
2022-08-18T16:00:43.789Z,97919.47
2022-08-18T16:03:14.666Z,97920.34
2022-08-18T16:05:45.663Z,97919.34
2022-08-18T16:08:12.325Z,97916.13
2022-08-18T16:10:41.417Z,97918.19
2022-08-18T16:13:07.794Z,97916.97
2022-08-18T16:15:37.073Z,97921.25
2022-08-18T16:18:03.554Z,97930.09
2022-08-18T16:20:29.910Z,97918.31
2022-08-18T16:22:57.888Z,97924.91
2022-08-18T16:25:24.291Z,97923.06
2022-08-18T16:27:50.720Z,97920.69
2022-08-18T16:30:18.083Z,97925.31
2022-08-18T16:32:45.137Z,97924.22
2022-08-18T16:35:11.980Z,97923.28
2022-08-18T16:37:38.413Z,97925.00
2022-08-18T16:40:05.398Z,97918.75
2022-08-18T16:42:33.073Z,97910.78
2022-08-18T16:44:59.718Z,97915.41
2022-08-18T16:47:26.989Z,97921.44
2022-08-18T16:49:58.311Z,97914.28
2022-08-18T16:52:25.197Z,97909.84
2022-08-18T16:54:57.682Z,97918.94
2022-08-18T16:57:53.412Z,97919.91
2022-08-18T17:00:40.499Z,97905.00
2022-08-18T17:03:25.441Z,97902.81
2022-08-18T17:05:58.579Z,97890.88
2022-08-18T17:08:25.343Z,97891.06
2022-08-18T17:10:51.717Z,97893.31
2022-08-18T17:13:18.120Z,97899.69
2022-08-18T17:15:49.560Z,97902.16
2022-08-18T17:18:16.100Z,97905.66
2022-08-18T17:20:42.474Z,97916.06
2022-08-18T17:23:09.929Z,97911.88
2022-08-18T17:25:36.278Z,97908.91
2022-08-18T17:28:06.186Z,97914.31
2022-08-18T17:30:38.348Z,97910.34
2022-08-18T17:33:15.454Z,97913.47
2022-08-18T17:35:42.815Z,97909.59
2022-08-18T17:38:13.458Z,97910.03
2022-08-18T17:40:44.196Z,97910.41
2022-08-18T17:43:12.188Z,97907.81
2022-08-18T17:45:38.546Z,97906.84
2022-08-18T17:48:13.504Z,97915.00
2022-08-18T17:51:05.949Z,97921.53
2022-08-18T17:53:32.564Z,97913.94
2022-08-18T17:56:05.383Z,97914.09
2022-08-18T17:58:42.390Z,97914.81
2022-08-18T18:01:09.319Z,97916.22
2022-08-18T18:03:35.904Z,97911.09
2022-08-18T18:06:12.233Z,97917.13
2022-08-18T18:08:48.600Z,97911.09
2022-08-18T18:11:14.957Z,97906.25
2022-08-18T18:13:41.313Z,97906.94
2022-08-18T18:16:34.824Z,97906.69
2022-08-18T18:19:03.341Z,97915.53
2022-08-18T18:21:57.592Z,97914.97
2022-08-18T18:24:17.490Z,97916.03
2022-08-18T18:26:50.983Z,97910.34
2022-08-18T18:29:21.792Z,97911.91
2022-08-18T18:31:51.950Z,97913.50
2022-08-18T18:34:39.592Z,97912.47
2022-08-18T18:37:22.134Z,97919.59
2022-08-18T18:39:53.883Z,97911.38
2022-08-18T18:42:24.662Z,97911.13
2022-08-18T18:44:52.057Z,97920.31
2022-08-18T18:47:24.666Z,97911.94
2022-08-18T18:49:53.453Z,97912.72
2022-08-18T18:52:38.898Z,97907.22
2022-08-18T18:55:06.187Z,97906.22
2022-08-18T18:57:39.951Z,97910.69
2022-08-18T19:00:20.323Z,97907.28
2022-08-18T19:02:47.081Z,97905.91
2022-08-18T19:05:43.410Z,97904.00
2022-08-18T19:08:26.365Z,97893.09
2022-08-18T19:11:07.306Z,97894.47
2022-08-18T19:13:39.280Z,97893.03
2022-08-18T19:16:11.714Z,97901.16
2022-08-18T19:18:57.728Z,97898.69
2022-08-18T19:22:04.083Z,97895.88
2022-08-18T19:24:23.936Z,97902.75
2022-08-18T19:26:51.372Z,97899.91
2022-08-18T19:29:18.635Z,97901.25
2022-08-18T19:34:18.815Z,97901.41
2022-08-18T19:37:00.946Z,97902.56
2022-08-18T19:39:32.076Z,97904.06
2022-08-18T19:42:04.713Z,97904.97
2022-08-18T19:44:34.276Z,97908.69
2022-08-18T19:47:04.674Z,97911.22
2022-08-18T19:49:57.707Z,97911.78
2022-08-18T19:52:46.061Z,97914.25
2022-08-18T19:55:32.900Z,97903.75
2022-08-18T19:58:08.377Z,97915.78
2022-08-18T20:00:49.341Z,97915.06
2022-08-18T20:03:28.069Z,97925.94
2022-08-18T20:06:34.845Z,97923.53
2022-08-18T20:09:08.204Z,97917.91
2022-08-18T20:11:41.843Z,97919.06
2022-08-18T20:14:12.583Z,97916.81
2022-08-18T20:16:43.803Z,97916.16
2022-08-18T20:19:30.398Z,97912.09
2022-08-18T20:22:00.525Z,97919.84
2022-08-18T20:24:30.496Z,97913.34
2022-08-18T20:26:57.025Z,97916.28
2022-08-18T20:29:36.273Z,97913.34
2022-08-18T20:32:03.529Z,97917.28
2022-08-18T20:34:30.291Z,97925.41
2022-08-18T20:36:58.742Z,97922.22
2022-08-18T20:39:44.098Z,97911.06
2022-08-18T20:42:22.723Z,97929.50
2022-08-18T20:44:52.475Z,97927.97
2022-08-18T20:47:37.618Z,97922.22
2022-08-18T20:50:22.944Z,97918.56
2022-08-18T20:52:58.142Z,97918.94
2022-08-18T20:55:26.751Z,97924.19
2022-08-18T20:57:59.917Z,97935.47
2022-08-18T21:00:27.755Z,97929.41
2022-08-18T21:02:58.128Z,97935.34
2022-08-18T21:05:27.959Z,97933.72
2022-08-18T21:07:59.770Z,97929.31
2022-08-18T21:10:28.981Z,97933.31
2022-08-18T21:12:56.500Z,97930.47
2022-08-18T21:15:24.133Z,97929.88
2022-08-18T21:18:17.055Z,97927.19
2022-08-18T21:20:43.415Z,97930.84
2022-08-18T21:23:11.379Z,97934.13
2022-08-18T21:25:40.226Z,97937.97
2022-08-18T21:28:06.893Z,97931.75
2022-08-18T21:30:34.731Z,97944.31
2022-08-18T21:33:02.199Z,97940.31
2022-08-18T21:35:30.784Z,97951.72
2022-08-18T21:38:01.074Z,97949.75
2022-08-18T21:40:29.969Z,97950.56
2022-08-18T21:42:56.396Z,97943.09
2022-08-18T21:45:23.346Z,97945.97
2022-08-18T21:47:53.651Z,97943.28
2022-08-18T21:50:23.065Z,97940.56
2022-08-18T21:52:53.648Z,97938.47
2022-08-18T21:55:20.190Z,97933.59
2022-08-18T21:57:48.265Z,97933.38
2022-08-18T22:00:17.426Z,97936.13
2022-08-18T22:02:44.193Z,97937.78
2022-08-18T22:05:11.212Z,97933.53
2022-08-18T22:07:44.863Z,97939.28
2022-08-18T22:11:02.783Z,97953.22
2022-08-18T22:13:47.909Z,97941.56
2022-08-18T22:16:27.828Z,97938.84
2022-08-18T22:19:11.584Z,97931.91
2022-08-18T22:21:41.787Z,97929.97
2022-08-18T22:24:19.471Z,97926.47
2022-08-18T22:27:06.823Z,97934.28
2022-08-18T22:29:45.473Z,97935.66
2022-08-18T22:32:12.411Z,97942.59
2022-08-18T22:34:40.437Z,97947.06
2022-08-18T22:37:12.257Z,97936.22
2022-08-18T22:39:40.318Z,97931.00
2022-08-18T22:42:06.966Z,97937.25
2022-08-18T22:44:33.343Z,97938.16
2022-08-18T22:46:59.775Z,97950.28
2022-08-18T22:49:26.164Z,97942.94
2022-08-18T22:51:53.257Z,97951.72
2022-08-18T22:54:19.640Z,97962.50
2022-08-18T22:56:56.319Z,97972.13
2022-08-18T22:59:25.374Z,97970.38
2022-08-18T23:01:53.406Z,97965.28
2022-08-18T23:04:20.616Z,97974.00
2022-08-18T23:06:51.824Z,97978.47
2022-08-18T23:09:21.957Z,97976.94
2022-08-18T23:11:48.358Z,97974.94
2022-08-18T23:14:14.793Z,97979.38
2022-08-18T23:16:46.938Z,97984.16
2022-08-18T23:19:14.252Z,97981.94
2022-08-18T23:21:40.620Z,97983.75
2022-08-18T23:24:07.497Z,97985.28
2022-08-18T23:26:34.296Z,97981.38
2022-08-18T23:29:00.873Z,97972.56
2022-08-18T23:31:27.793Z,97982.75
2022-08-18T23:33:54.173Z,97982.44
2022-08-18T23:36:20.571Z,97989.34
2022-08-18T23:38:46.921Z,97988.13
2022-08-18T23:41:13.418Z,97980.13
2022-08-18T23:43:39.830Z,97979.69
2022-08-18T23:46:17.049Z,97988.50
2022-08-18T23:48:49.635Z,97999.38
2022-08-18T23:51:23.980Z,97995.25
2022-08-18T23:53:52.171Z,97991.69
2022-08-18T23:56:18.541Z,97987.56
2022-08-18T23:58:46.212Z,97994.03
